AirNav   ProFlight Series 2 Aviation Headset
 
 393 users online  

NY29 Schuyler Airport
Watkins Glen, New York, USA

GOING TO WATKINS GLEN?


FAA INFORMATION EFFECTIVE 16 JULY 2020

Location

FAA Identifier: NY29
Lat/Long: 42-27-07.2590N 076-54-41.8580W
42-27.120983N 076-54.697633W
42.4520164,-76.9116272
(estimated)
Elevation: 870 ft. / 265 m (estimated)
Variation: 11W (1985)
From city: 4 miles N of WATKINS GLEN, NY
Time zone: UTC -4 (UTC -5 during Standard Time)
Zip code: 14878

Airport Operations

Airport use: Private use. Permission required prior to landing
Control tower: no
ARTCC: NEW YORK CENTER
FSS: BUFFALO FLIGHT SERVICE STATION
Attendance: UNATNDD
Wind indicator: yes
Segmented circle: no

Airport Communications

WX ASOS at PEO (13 nm NW): 121.175 (315-536-4102)
WX ASOS at ELM (18 nm S): PHONE 607-796-0065

Nearby radio navigation aids

VOR radial/distance  VOR name  Freq  Var
ITHr273/20.2ITHACA VOR/DME111.8010W
ULWr025/22.1ELMIRA VOR/DME109.6512W
CFBr307/38.7BINGHAMTON VOR/DME112.2010W

 
NDB name  Hdg/Dist  Freq  Var  ID
PENN YAN163/13.226012WPYA .--. -.-- .-
ALPINE345/14.424512WALP .- .-.. .--.

Airport Services

Parking: tiedowns
Airframe service: NONE
Powerplant service: NONE

Runway Information

Runway 17/35

Dimensions: 2100 x 45 ft. / 640 x 14 m
Surface: turf, in good condition
RUNWAY 17  RUNWAY 35
Traffic pattern: leftleft
Obstructions: 20 ft. other, marked, 20 ft. from runway, 100 ft. right of centerline, 1:1 slope to clear
WIRE
30 ft. tree, 50 ft. from runway, 36 ft. left of centerline, 1:1 slope to clear

Airport Ownership and Management from official FAA records

Ownership: Privately-owned
Owner: TERENCE A. & PATRICIA J. MASON
4490 DAYSPRING WAY
ROCK STREAM, NY 14878
Phone 607-535-0536
Manager: TERENCE A. & PATRICIA J. MASON
P.O. BOX 747
ROCK STREAM, NY 14878-0747
Phone 607-535-0536

Airport Operational Statistics

Aircraft based on the field: 1
Single engine airplanes: 1
    
Aircraft operations: avg 34/week *
91% local general aviation
9% transient general aviation
* for 12-month period ending 02 July 1986

Additional Remarks

FOR CD CTC NEW YORK ARTCC AT 631-468-1425.

Instrument Procedures

There are no published instrument procedures at NY29.

Some nearby airports with instrument procedures:

KPEO - Penn Yan Airport (13 nm NW)
KELM - Elmira/Corning Regional Airport (18 nm S)
KITH - Ithaca Tompkins Regional Airport (20 nm E)
0G7 - Finger Lakes Regional Airport (27 nm N)
N03 - Cortland County Airport-Chase Field (32 nm E)
 
Loc | Ops | Rwys | IFR | FBO | Links
Com | Nav | Svcs | Stats | Notes
Area around NY29 (Schuyler Airport)
 
Road maps at: MapQuest Bing Google
 
Aerial photo
No photo
 
Sectional chart

 
Airport distance calculator
Flying to Schuyler Airport? Find the distance to fly.

From to NY29

Sunrise and sunset
Times for 10-Aug-2020
 Local
(UTC-4)
 Zulu
(UTC)
Morning civil twilight05:4109:41
Sunrise06:1110:11
Sunset20:1400:14
Evening civil twilight20:4500:45

Current date and time
Zulu (UTC)  10-Aug-2020 09:13:17
Local (UTC-4)  10-Aug-2020 05:13:17
 
METAR
KPEO 
13nm NW 
100853Z AUTO 19008KT 10SM SCT075 23/19 A3006 RMK AO2 SLP172 T02280189 51003
KELM 
18nm S 
100853Z AUTO 27003KT 10SM FEW080 17/17 A3007 RMK AO2 SLP177 T01720167 51005
KITH 
20nm E 
100856Z AUTO 08004KT 10SM CLR 18/18 A3008 RMK AO2 SLP177 T01830183 50002
TAF
KELM 
18nm S 
100536Z 1006/1106 26003KT P6SM SCT060 TEMPO 1008/1012 5SM BR SCT003 SCT040 FM101200 VRB03KT P6SM FEW100 FM101800 23005KT P6SM SCT050 FM110000 VRB03KT P6SM FEW200
KITH 
20nm E 
100536Z 1006/1106 25005KT P6SM SCT060 FM100800 VRB03KT P6SM SCT250 FM101800 24005KT P6SM SCT050 FM110300 VRB03KT P6SM FEW250
NOTAMs
Click for the latest NOTAMs
NOTAMs are issued by the DoD/FAA and will open in a separate window not controlled by AirNav.

 

 
 

Would you like to see your business listed on this page?

 If your business provides an interesting product or service to pilots, flight crews, aircraft, or users of the Schuyler Airport, you should consider listing it here.  To start the listing process, click on the button below
 
Add a business
 

Other Pages about Schuyler Airport

Update a link
 
Copyright © AirNav, LLC. All rights reserved. Privacy Policy  Contact